createdAt,value
2018-11-25T00:00:49.911Z,101382.51
2018-11-25T00:03:19.482Z,101381.92
2018-11-25T00:05:47.668Z,101381.70
2018-11-25T00:08:15.912Z,101374.08
2018-11-25T00:10:44.063Z,101367.88
2018-11-25T00:13:12.250Z,101366.89
2018-11-25T00:15:40.431Z,101368.44
2018-11-25T00:18:08.643Z,101363.41
2018-11-25T00:20:36.995Z,101360.00
2018-11-25T00:23:05.957Z,101358.73
2018-11-25T00:25:34.143Z,101356.92
2018-11-25T00:28:02.557Z,101349.68
2018-11-25T00:30:30.743Z,101348.63
2018-11-25T00:32:58.945Z,101352.41
2018-11-25T00:35:27.315Z,101351.86
2018-11-25T00:37:55.548Z,101350.55
2018-11-25T00:40:23.771Z,101350.73
2018-11-25T00:42:51.956Z,101352.20
2018-11-25T00:45:20.567Z,101352.30
2018-11-25T00:47:49.561Z,101356.33
2018-11-25T00:50:18.435Z,101356.13
2018-11-25T00:52:46.622Z,101355.63
2018-11-25T00:55:16.649Z,101351.34
2018-11-25T00:57:44.921Z,101350.98
2018-11-25T01:00:17.905Z,101355.83
2018-11-25T01:02:46.838Z,101352.36
2018-11-25T01:05:15.240Z,101350.15
2018-11-25T01:07:43.539Z,101348.78
2018-11-25T01:10:13.827Z,101353.91
2018-11-25T01:12:42.130Z,101354.86
2018-11-25T01:15:15.019Z,101359.70
2018-11-25T01:17:43.364Z,101359.84
2018-11-25T01:20:13.701Z,101354.00
2018-11-25T01:22:41.943Z,101356.13
2018-11-25T01:25:10.986Z,101354.92
2018-11-25T01:27:39.215Z,101351.66
2018-11-25T01:30:15.340Z,101354.92
2018-11-25T01:32:43.585Z,101353.60
2018-11-25T01:35:12.271Z,101358.63
2018-11-25T01:37:40.498Z,101355.78
2018-11-25T01:40:14.532Z,101347.06
2018-11-25T01:42:42.708Z,101348.38
2018-11-25T01:45:13.014Z,101350.89
2018-11-25T01:47:41.188Z,101348.44
2018-11-25T01:50:10.701Z,101349.09
2018-11-25T01:52:39.061Z,101349.54
2018-11-25T01:55:09.157Z,101348.23
2018-11-25T01:57:37.343Z,101350.15
2018-11-25T02:00:09.557Z,101349.68
2018-11-25T02:02:42.768Z,101347.98
2018-11-25T02:05:10.961Z,101348.83
2018-11-25T02:07:39.630Z,101344.61
2018-11-25T02:10:09.833Z,101341.64
2018-11-25T02:12:38.039Z,101345.31
2018-11-25T02:15:08.007Z,101343.26
2018-11-25T02:17:36.408Z,101340.59
2018-11-25T02:20:08.874Z,101337.83
2018-11-25T02:22:37.096Z,101330.73
2018-11-25T02:25:06.352Z,101332.03
2018-11-25T02:27:34.567Z,101328.56
2018-11-25T02:30:02.810Z,101342.24
2018-11-25T02:32:31.027Z,101339.53
2018-11-25T02:34:59.250Z,101339.88
2018-11-25T02:37:27.430Z,101342.24
2018-11-25T02:39:55.651Z,101332.05
2018-11-25T02:42:24.850Z,101337.02
2018-11-25T02:44:53.026Z,101339.78
2018-11-25T02:47:21.355Z,101336.81
2018-11-25T02:49:49.549Z,101335.61
2018-11-25T02:52:17.781Z,101332.09
2018-11-25T02:54:46.140Z,101331.73
2018-11-25T02:57:14.340Z,101328.33
2018-11-25T02:59:42.548Z,101322.30
2018-11-25T03:02:10.764Z,101328.67
2018-11-25T03:04:38.985Z,101327.53
2018-11-25T03:07:07.252Z,101329.17
2018-11-25T03:09:35.428Z,101332.50
2018-11-25T03:12:03.652Z,101332.89
2018-11-25T03:14:32.127Z,101328.77
2018-11-25T03:17:00.411Z,101330.88
2018-11-25T03:19:28.591Z,101323.45
2018-11-25T03:21:56.766Z,101327.93
2018-11-25T03:24:24.972Z,101325.91
2018-11-25T03:26:53.157Z,101323.75
2018-11-25T03:29:21.405Z,101319.13
2018-11-25T03:31:49.677Z,101328.33
2018-11-25T03:34:17.888Z,101326.72
2018-11-25T03:36:46.066Z,101327.27
2018-11-25T03:39:15.285Z,101324.01
2018-11-25T03:41:43.477Z,101327.93
2018-11-25T03:44:11.671Z,101327.53
2018-11-25T03:46:39.869Z,101322.05
2018-11-25T03:49:08.181Z,101322.89
2018-11-25T03:51:36.388Z,101324.61
2018-11-25T03:54:04.615Z,101314.95
2018-11-25T03:56:32.792Z,101321.79
2018-11-25T03:59:01.003Z,101323.41
2018-11-25T04:01:29.890Z,101320.73
2018-11-25T04:03:58.152Z,101323.11
2018-11-25T04:06:26.368Z,101325.37
2018-11-25T04:08:54.595Z,101318.97
2018-11-25T04:11:22.812Z,101317.83
2018-11-25T04:13:50.982Z,101321.49
2018-11-25T04:16:19.339Z,101314.86
2018-11-25T04:18:47.543Z,101315.70
2018-11-25T04:21:15.971Z,101317.02
2018-11-25T04:23:44.374Z,101312.39
2018-11-25T04:26:12.551Z,101304.60
2018-11-25T04:28:40.731Z,101305.31
2018-11-25T04:31:09.380Z,101306.83
2018-11-25T04:33:37.688Z,101304.60
2018-11-25T04:36:05.877Z,101305.27
2018-11-25T04:38:34.059Z,101300.08
2018-11-25T04:41:02.229Z,101303.70
2018-11-25T04:43:30.426Z,101305.00
2018-11-25T04:45:58.661Z,101312.84
2018-11-25T04:48:26.842Z,101313.89
2018-11-25T04:50:55.043Z,101312.48
2018-11-25T04:53:23.278Z,101315.11
2018-11-25T04:55:51.525Z,101313.31
2018-11-25T04:58:19.753Z,101315.05
2018-11-25T05:00:47.955Z,101308.83
2018-11-25T05:03:16.183Z,101313.10
2018-11-25T05:05:44.408Z,101314.31
2018-11-25T05:08:12.652Z,101309.89
2018-11-25T05:10:40.818Z,101307.82
2018-11-25T05:13:09.090Z,101312.00
2018-11-25T05:15:37.960Z,101303.55
2018-11-25T05:18:06.255Z,101314.60
2018-11-25T05:20:34.444Z,101312.19
2018-11-25T05:23:02.670Z,101308.98
2018-11-25T05:25:31.153Z,101321.39
2018-11-25T05:27:59.338Z,101320.03
2018-11-25T05:30:27.541Z,101315.05
2018-11-25T05:32:55.777Z,101312.59
2018-11-25T05:35:24.084Z,101314.25
2018-11-25T05:37:52.684Z,101311.39
2018-11-25T05:40:20.914Z,101317.52
2018-11-25T05:42:49.195Z,101311.78
2018-11-25T05:45:18.184Z,101307.42
2018-11-25T05:47:46.612Z,101301.98
2018-11-25T05:50:16.692Z,101309.97
2018-11-25T05:52:44.855Z,101312.34
2018-11-25T05:55:13.288Z,101313.10
2018-11-25T05:57:41.643Z,101308.06
2018-11-25T06:00:21.956Z,101310.54
2018-11-25T06:02:50.233Z,101309.88
2018-11-25T06:05:18.413Z,101318.17
2018-11-25T06:07:46.591Z,101320.27
2018-11-25T06:10:14.869Z,101333.50
2018-11-25T06:12:43.148Z,101327.86
2018-11-25T06:15:12.286Z,101318.86
2018-11-25T06:17:40.483Z,101323.33
2018-11-25T06:20:11.920Z,101322.95
2018-11-25T06:22:40.146Z,101326.30
2018-11-25T06:25:09.732Z,101325.70
2018-11-25T06:27:38.563Z,101330.12
2018-11-25T06:30:10.353Z,101324.95
2018-11-25T06:32:38.642Z,101321.37
2018-11-25T06:35:08.254Z,101327.11
2018-11-25T06:37:36.471Z,101330.62
2018-11-25T06:40:07.096Z,101333.34
2018-11-25T06:42:35.439Z,101340.33
2018-11-25T06:45:03.651Z,101341.18
2018-11-25T06:47:31.828Z,101342.48
2018-11-25T06:50:00.063Z,101343.60
2018-11-25T06:52:28.302Z,101347.05
2018-11-25T06:54:56.542Z,101353.81
2018-11-25T06:57:24.741Z,101353.34
2018-11-25T06:59:52.931Z,101347.62
2018-11-25T07:02:21.156Z,101350.14
2018-11-25T07:04:49.373Z,101352.80
2018-11-25T07:07:18.222Z,101350.64
2018-11-25T07:09:46.501Z,101360.69
2018-11-25T07:12:14.732Z,101364.27
2018-11-25T07:14:42.967Z,101364.86
2018-11-25T07:17:11.207Z,101366.88
2018-11-25T07:19:39.477Z,101352.95
2018-11-25T07:22:07.754Z,101364.12
2018-11-25T07:24:36.010Z,101373.22
2018-11-25T07:27:04.320Z,101372.95
2018-11-25T07:29:32.557Z,101363.70
2018-11-25T07:32:01.473Z,101367.47
2018-11-25T07:34:29.637Z,101368.52
2018-11-25T07:36:58.006Z,101373.40
2018-11-25T07:39:26.273Z,101380.05
2018-11-25T07:41:54.519Z,101364.41
2018-11-25T07:44:22.692Z,101380.14
2018-11-25T07:46:50.965Z,101381.26
2018-11-25T07:49:19.145Z,101390.10
2018-11-25T07:51:47.937Z,101385.28
2018-11-25T07:54:16.146Z,101389.54
2018-11-25T07:56:44.340Z,101392.96
2018-11-25T07:59:12.543Z,101392.01
2018-11-25T08:01:40.767Z,101391.16
2018-11-25T08:04:09.129Z,101400.71
2018-11-25T08:06:37.314Z,101390.14
2018-11-25T08:09:07.811Z,101393.27
2018-11-25T08:11:36.170Z,101384.91
2018-11-25T08:14:04.493Z,101390.45
2018-11-25T08:16:32.702Z,101383.05
2018-11-25T08:19:01.000Z,101382.08
2018-11-25T08:21:29.236Z,101386.71
2018-11-25T08:23:57.511Z,101384.89
2018-11-25T08:26:25.754Z,101387.55
2018-11-25T08:28:54.010Z,101391.78
2018-11-25T08:31:22.281Z,101391.93
2018-11-25T08:33:50.524Z,101391.78
2018-11-25T08:36:18.783Z,101392.28
2018-11-25T08:38:47.223Z,101393.42
2018-11-25T08:41:15.833Z,101385.64
2018-11-25T08:43:47.549Z,101388.99
2018-11-25T08:46:15.829Z,101392.11
2018-11-25T08:48:49.645Z,101387.69
2018-11-25T08:51:26.236Z,101386.33
2018-11-25T08:53:54.497Z,101393.05
2018-11-25T08:56:22.717Z,101393.86
2018-11-25T08:58:50.915Z,101396.07
2018-11-25T09:01:19.359Z,101402.04
2018-11-25T09:03:47.744Z,101393.19
2018-11-25T09:06:16.025Z,101393.69
2018-11-25T09:08:44.284Z,101401.03
2018-11-25T09:11:12.548Z,101400.45
2018-11-25T09:13:40.725Z,101395.17
2018-11-25T09:16:08.998Z,101395.63
2018-11-25T09:18:37.285Z,101405.81
2018-11-25T09:21:05.727Z,101397.52
2018-11-25T09:23:35.117Z,101397.66
2018-11-25T09:26:03.542Z,101403.93
2018-11-25T09:28:32.967Z,101402.52
2018-11-25T09:31:01.242Z,101403.09
2018-11-25T09:33:30.589Z,101400.13
2018-11-25T09:37:08.089Z,101399.54
2018-11-25T09:39:36.380Z,101405.80
2018-11-25T09:42:04.701Z,101398.91
2018-11-25T09:44:32.979Z,101394.30
2018-11-25T09:47:01.250Z,101393.32
2018-11-25T09:49:29.607Z,101393.53
2018-11-25T09:51:57.804Z,101398.47
2018-11-25T09:54:26.080Z,101402.67
2018-11-25T09:56:54.256Z,101402.61
2018-11-25T09:59:22.517Z,101399.58
2018-11-25T10:01:50.719Z,101394.20
2018-11-25T10:04:18.932Z,101389.61
2018-11-25T10:06:47.407Z,101388.64
2018-11-25T10:09:16.924Z,101388.30
2018-11-25T10:11:45.294Z,101383.28
2018-11-25T10:14:13.637Z,101375.36
2018-11-25T10:16:41.892Z,101380.52
2018-11-25T10:19:10.301Z,101382.63
2018-11-25T10:21:39.150Z,101377.78
2018-11-25T10:24:07.403Z,101374.76
2018-11-25T10:26:35.576Z,101378.89
2018-11-25T10:29:03.808Z,101378.03
2018-11-25T10:31:32.040Z,101380.72
2018-11-25T10:34:00.370Z,101378.21
2018-11-25T10:36:28.547Z,101380.44
2018-11-25T10:38:57.807Z,101376.70
2018-11-25T10:41:26.005Z,101383.00
2018-11-25T10:46:27.610Z,101380.97
2018-11-25T10:48:55.821Z,101374.28
2018-11-25T10:51:24.111Z,101378.21
2018-11-25T10:53:54.822Z,101368.66
2018-11-25T10:56:23.263Z,101368.64
2018-11-25T10:58:51.517Z,101364.98
2018-11-25T11:02:02.626Z,101363.56
2018-11-25T11:07:23.009Z,101365.06
2018-11-25T11:21:23.968Z,101358.77
2018-11-25T11:23:52.283Z,101358.70
2018-11-25T11:26:25.410Z,101358.48
2018-11-25T11:28:53.596Z,101357.78
2018-11-25T11:31:21.809Z,101360.41
2018-11-25T11:33:50.024Z,101364.16
2018-11-25T11:36:18.203Z,101359.34
2018-11-25T11:38:46.391Z,101354.38
2018-11-25T11:41:14.698Z,101354.89
2018-11-25T11:43:43.566Z,101360.13
2018-11-25T11:46:11.876Z,101361.44
2018-11-25T11:48:40.093Z,101355.28
2018-11-25T11:51:08.254Z,101360.22
2018-11-25T11:53:36.468Z,101358.51
2018-11-25T11:56:04.864Z,101354.89
2018-11-25T11:58:33.088Z,101355.09
2018-11-25T12:01:01.273Z,101353.27
2018-11-25T12:03:29.480Z,101351.47
2018-11-25T12:05:57.702Z,101353.97
2018-11-25T12:08:25.890Z,101354.48
2018-11-25T12:10:54.109Z,101356.93
2018-11-25T12:13:22.444Z,101357.11
2018-11-25T12:15:50.687Z,101354.31
2018-11-25T12:18:19.019Z,101366.02
2018-11-25T12:20:47.243Z,101356.59
2018-11-25T12:23:15.424Z,101354.70
2018-11-25T12:25:43.622Z,101357.24
2018-11-25T12:28:11.942Z,101361.39
2018-11-25T12:30:40.175Z,101362.03
2018-11-25T12:33:08.357Z,101365.17
2018-11-25T12:35:36.695Z,101366.88
2018-11-25T12:38:04.872Z,101366.97
2018-11-25T12:40:33.069Z,101370.05
2018-11-25T12:43:01.282Z,101366.11
2018-11-25T12:45:29.540Z,101361.63
2018-11-25T12:47:57.778Z,101357.18
2018-11-25T12:50:26.765Z,101352.85
2018-11-25T12:52:55.352Z,101354.69
2018-11-25T12:55:24.667Z,101358.42
2018-11-25T12:57:53.259Z,101355.99
2018-11-25T13:00:24.716Z,101356.99
2018-11-25T13:02:52.985Z,101362.12
2018-11-25T13:05:21.332Z,101360.60
2018-11-25T13:07:49.538Z,101358.19
2018-11-25T13:10:17.732Z,101355.30
2018-11-25T13:12:45.911Z,101350.62
2018-11-25T13:15:14.149Z,101353.37
2018-11-25T13:17:42.388Z,101347.70
2018-11-25T13:20:17.868Z,101352.34
2018-11-25T13:22:46.250Z,101351.48
2018-11-25T13:25:16.399Z,101352.73
2018-11-25T13:27:44.860Z,101354.25
2018-11-25T13:30:17.306Z,101358.77
2018-11-25T13:32:45.924Z,101360.52
2018-11-25T13:35:14.262Z,101356.85
2018-11-25T13:37:42.585Z,101364.84
2018-11-25T13:40:12.146Z,101368.26
2018-11-25T13:42:40.411Z,101371.16
2018-11-25T13:45:07.611Z,101366.55
2018-11-25T13:47:43.460Z,101380.18
2018-11-25T13:50:12.337Z,101383.29
2018-11-25T13:52:40.651Z,101375.73
2018-11-25T13:55:17.377Z,101379.66
2018-11-25T13:57:46.213Z,101381.31
2018-11-25T14:00:27.059Z,101380.06
2018-11-25T14:02:55.407Z,101383.20
2018-11-25T14:05:23.907Z,101381.06
2018-11-25T14:07:52.131Z,101381.58
2018-11-25T14:10:25.043Z,101388.05
2018-11-25T14:12:53.534Z,101384.78
2018-11-25T14:15:21.832Z,101393.90
2018-11-25T14:17:50.222Z,101388.71
2018-11-25T14:20:18.839Z,101387.73
2018-11-25T14:22:49.071Z,101385.97
2018-11-25T14:25:18.747Z,101391.12
2018-11-25T14:27:48.543Z,101387.62
2018-11-25T14:30:33.809Z,101381.12
2018-11-25T14:33:02.834Z,101380.84
2018-11-25T14:35:31.068Z,101386.31
2018-11-25T14:37:59.490Z,101382.50
2018-11-25T14:40:27.874Z,101379.41
2018-11-25T14:42:56.196Z,101379.75
2018-11-25T14:45:24.485Z,101379.99
2018-11-25T14:47:52.752Z,101375.66
2018-11-25T14:50:21.126Z,101375.66
2018-11-25T14:52:50.495Z,101368.91
2018-11-25T14:55:19.173Z,101367.47
2018-11-25T14:57:47.732Z,101359.86
2018-11-25T15:00:17.253Z,101352.08
2018-11-25T15:02:46.874Z,101351.03
2018-11-25T15:05:17.708Z,101351.09
2018-11-25T15:07:46.048Z,101342.94
2018-11-25T15:10:14.412Z,101342.48
2018-11-25T15:12:42.686Z,101337.69
2018-11-25T15:15:12.521Z,101336.55
2018-11-25T15:17:41.649Z,101340.98
2018-11-25T15:20:13.675Z,101344.78
2018-11-25T15:22:43.444Z,101345.05
2018-11-25T15:25:17.540Z,101354.45
2018-11-25T15:27:45.773Z,101352.34
2018-11-25T15:30:31.777Z,101349.52
2018-11-25T15:32:59.975Z,101351.33
2018-11-25T15:35:28.194Z,101357.72
2018-11-25T15:37:56.475Z,101354.48
2018-11-25T15:40:27.211Z,101358.91
2018-11-25T15:42:55.454Z,101361.24
2018-11-25T15:45:23.638Z,101364.61
2018-11-25T15:47:58.615Z,101374.69
2018-11-25T15:57:04.266Z,101373.48
2018-11-25T15:59:32.468Z,101371.14
2018-11-25T16:02:00.853Z,101377.67
2018-11-25T16:07:27.961Z,101383.71
2018-11-25T16:10:01.830Z,101380.55
2018-11-25T16:12:52.943Z,101385.64
2018-11-25T16:15:23.210Z,101381.63
2018-11-25T16:17:51.384Z,101388.78
2018-11-25T16:20:27.184Z,101389.52
2018-11-25T16:23:06.586Z,101398.84
2018-11-25T16:25:39.519Z,101402.12
2018-11-25T16:28:21.332Z,101411.52
2018-11-25T16:30:49.659Z,101405.44
2018-11-25T16:33:17.899Z,101404.84
2018-11-25T16:35:46.660Z,101405.05
2018-11-25T16:38:19.845Z,101401.67
2018-11-25T16:40:48.873Z,101397.39
2018-11-25T16:43:17.082Z,101408.05
2018-11-25T16:45:45.298Z,101406.72
2018-11-25T16:48:13.589Z,101402.87
2018-11-25T16:50:41.811Z,101406.98
2018-11-25T16:53:10.144Z,101414.02
2018-11-25T16:55:38.351Z,101412.65
2018-11-25T16:58:07.139Z,101406.06
2018-11-25T17:00:41.625Z,101410.70
2018-11-25T17:03:09.901Z,101412.66
2018-11-25T17:05:40.211Z,101405.02
2018-11-25T17:08:24.416Z,101405.40
2018-11-25T17:10:52.660Z,101411.42
2018-11-25T17:13:21.684Z,101411.70
2018-11-25T17:15:50.251Z,101410.20
2018-11-25T17:18:18.885Z,101412.42
2018-11-25T17:20:47.075Z,101415.43
2018-11-25T17:23:15.555Z,101412.73
2018-11-25T17:25:43.797Z,101389.00
2018-11-25T17:28:12.053Z,101417.65
2018-11-25T17:30:40.392Z,101421.39
2018-11-25T17:33:09.123Z,101422.78
2018-11-25T17:35:37.402Z,101423.45
2018-11-25T17:38:06.013Z,101424.53
2018-11-25T17:40:34.242Z,101421.70
2018-11-25T17:43:02.719Z,101424.58
2018-11-25T17:45:30.993Z,101422.16
2018-11-25T17:47:59.378Z,101423.59
2018-11-25T17:50:31.452Z,101426.42
2018-11-25T17:53:01.667Z,101434.70
2018-11-25T17:55:30.828Z,101439.96
2018-11-25T17:57:59.223Z,101442.57
2018-11-25T18:00:39.766Z,101445.80
2018-11-25T18:03:17.628Z,101442.61
2018-11-25T18:05:45.906Z,101442.80
2018-11-25T18:08:14.163Z,101436.95
2018-11-25T18:10:42.481Z,101442.23
2018-11-25T18:13:11.998Z,101443.61
2018-11-25T18:15:40.623Z,101449.02
2018-11-25T18:18:13.695Z,101448.05
2018-11-25T18:20:53.404Z,101448.12
2018-11-25T18:23:22.048Z,101372.69
2018-11-25T18:25:50.503Z,101449.83
2018-11-25T18:28:18.715Z,101459.92
2018-11-25T18:30:47.007Z,101459.48
2018-11-25T18:33:15.199Z,101464.59
2018-11-25T18:35:43.497Z,101451.20
2018-11-25T18:38:11.779Z,101402.41
2018-11-25T18:40:40.064Z,101472.05
2018-11-25T18:46:04.494Z,101468.62
2018-11-25T18:48:33.754Z,101458.85
2018-11-25T18:51:01.911Z,101463.39
2018-11-25T18:53:30.444Z,101468.62
2018-11-25T18:56:01.585Z,101470.52
2018-11-25T18:58:29.960Z,101474.58
2018-11-25T19:01:03.183Z,101475.52
2018-11-25T19:03:31.418Z,101467.61
2018-11-25T19:05:59.715Z,101472.84
2018-11-25T19:08:28.087Z,101470.59
2018-11-25T19:10:56.405Z,101478.58
2018-11-25T19:13:24.692Z,101482.46
2018-11-25T19:15:52.949Z,101482.78
2018-11-25T19:18:21.320Z,101485.44
2018-11-25T19:20:49.724Z,101486.05
2018-11-25T19:23:19.122Z,101479.84
2018-11-25T19:25:47.680Z,101480.22
2018-11-25T19:28:17.318Z,101485.16
2018-11-25T19:30:46.042Z,101479.56
2018-11-25T19:33:14.700Z,101485.97
2018-11-25T19:35:44.459Z,101492.53
2018-11-25T19:38:13.205Z,101486.62
2018-11-25T19:40:41.816Z,101483.11
2018-11-25T19:43:10.371Z,101489.92
2018-11-25T19:45:38.960Z,101483.23
2018-11-25T19:48:07.504Z,101486.66
2018-11-25T19:50:37.423Z,101484.83
2018-11-25T19:53:11.012Z,101492.38
2018-11-25T19:55:40.435Z,101489.40
2018-11-25T19:58:09.068Z,101487.97
2018-11-25T20:00:38.030Z,101489.19
2018-11-25T20:03:06.962Z,101485.39
2018-11-25T20:05:35.602Z,101480.75
2018-11-25T20:08:05.605Z,101481.97
2018-11-25T20:10:34.160Z,101483.84
2018-11-25T20:13:02.656Z,101479.20
2018-11-25T20:15:31.880Z,101479.75
2018-11-25T20:18:00.347Z,101477.34
2018-11-25T20:20:29.917Z,101481.33
2018-11-25T20:22:58.236Z,101479.86
2018-11-25T20:25:26.500Z,101483.00
2018-11-25T20:27:55.787Z,101485.07
2018-11-25T20:30:28.970Z,101482.23
2018-11-25T20:33:02.512Z,101484.95
2018-11-25T20:35:30.822Z,101484.63
2018-11-25T20:38:04.869Z,101493.23
2018-11-25T20:40:34.690Z,101499.53
2018-11-25T20:43:03.149Z,101503.53
2018-11-25T20:45:39.073Z,101499.47
2018-11-25T20:48:06.562Z,101509.38
2018-11-25T20:50:34.772Z,101504.48
2018-11-25T20:53:08.622Z,101512.20
2018-11-25T20:55:37.044Z,101503.75
2018-11-25T20:58:07.074Z,101505.19
2018-11-25T21:00:35.646Z,101511.42
2018-11-25T21:03:03.949Z,101506.28
2018-11-25T21:05:32.469Z,101505.19
2018-11-25T21:08:06.960Z,101510.12
2018-11-25T21:10:35.625Z,101502.90
2018-11-25T21:13:03.929Z,101507.10
2018-11-25T21:15:33.701Z,101511.42
2018-11-25T21:18:02.504Z,101514.04
2018-11-25T21:20:31.373Z,101506.16
2018-11-25T21:23:00.351Z,101509.95
2018-11-25T21:25:29.327Z,101510.97
2018-11-25T21:27:58.197Z,101519.47
2018-11-25T21:30:27.661Z,101521.20
2018-11-25T21:32:58.212Z,101512.84
2018-11-25T21:35:26.604Z,101506.66
2018-11-25T21:37:54.859Z,101503.02
2018-11-25T21:40:24.100Z,101506.92
2018-11-25T21:42:54.718Z,101499.58
2018-11-25T21:45:30.752Z,101511.13
2018-11-25T21:47:59.170Z,101507.97
2018-11-25T21:50:28.742Z,101508.75
2018-11-25T21:52:56.947Z,101498.57
2018-11-25T21:55:25.858Z,101496.77
2018-11-25T21:57:54.069Z,101499.84
2018-11-25T22:00:23.276Z,101495.06
2018-11-25T22:03:54.102Z,101497.59
2018-11-25T22:06:22.366Z,101500.00
2018-11-25T22:08:50.745Z,101500.25
2018-11-25T22:11:18.940Z,101508.94
2018-11-25T22:13:47.364Z,101507.02
2018-11-25T22:16:15.744Z,101514.53
2018-11-25T22:18:44.878Z,101510.94
2018-11-25T22:21:13.074Z,101514.94
2018-11-25T22:23:41.450Z,101508.49
2018-11-25T22:26:09.671Z,101510.45
2018-11-25T22:28:37.883Z,101506.45
2018-11-25T22:31:08.812Z,101501.39
2018-11-25T22:33:39.316Z,101504.12
2018-11-25T22:36:07.700Z,101497.83
2018-11-25T22:38:36.464Z,101499.02
2018-11-25T22:41:04.990Z,101501.31
2018-11-25T22:43:33.976Z,101507.66
2018-11-25T22:46:02.238Z,101517.66
2018-11-25T22:48:30.517Z,101515.58
2018-11-25T22:50:58.710Z,101513.56
2018-11-25T22:53:26.933Z,101509.16
2018-11-25T22:55:56.486Z,101506.20
2018-11-25T22:58:24.735Z,101512.03
2018-11-25T23:00:53.850Z,101508.45
2018-11-25T23:03:22.208Z,101512.63
2018-11-25T23:06:01.560Z,101513.67
2018-11-25T23:08:29.728Z,101519.56
2018-11-25T23:10:57.905Z,101515.01
2018-11-25T23:13:26.081Z,101512.03
2018-11-25T23:15:54.391Z,101510.08
2018-11-25T23:18:22.535Z,101512.56
2018-11-25T23:20:51.984Z,101515.83
2018-11-25T23:23:20.467Z,101522.11
2018-11-25T23:25:48.691Z,101513.27
2018-11-25T23:28:16.864Z,101516.00
2018-11-25T23:30:45.204Z,101520.20
2018-11-25T23:33:13.350Z,101521.51
2018-11-25T23:35:41.602Z,101514.77
2018-11-25T23:38:09.846Z,101515.75
2018-11-25T23:40:38.040Z,101518.28
2018-11-25T23:43:07.026Z,101523.27
2018-11-25T23:45:35.306Z,101529.95
2018-11-25T23:48:03.504Z,101531.74
2018-11-25T23:50:31.744Z,101531.33
2018-11-25T23:52:59.929Z,101531.00
2018-11-25T23:55:28.302Z,101535.52
2018-11-25T23:57:57.043Z,101531.56
